createdAt,value
2018-11-29T00:01:59.006Z,7.53
2018-11-29T00:04:26.909Z,8.73
2018-11-29T00:06:54.793Z,7.10
2018-11-29T00:09:22.697Z,8.77
2018-11-29T00:11:50.598Z,7.37
2018-11-29T00:14:18.481Z,8.10
2018-11-29T00:16:46.377Z,8.07
2018-11-29T00:19:14.285Z,8.60
2018-11-29T00:21:42.176Z,6.80
2018-11-29T00:24:10.117Z,8.47
2018-11-29T00:26:38.057Z,8.37
2018-11-29T00:29:05.994Z,7.60
2018-11-29T00:31:33.873Z,8.27
2018-11-29T00:34:01.787Z,8.00
2018-11-29T00:36:29.697Z,7.50
2018-11-29T00:38:57.593Z,8.07
2018-11-29T00:41:25.469Z,7.60
2018-11-29T00:43:53.365Z,8.10
2018-11-29T00:46:21.246Z,7.33
2018-11-29T00:48:49.145Z,7.93
2018-11-29T00:51:17.054Z,8.10
2018-11-29T00:53:44.933Z,8.60
2018-11-29T00:56:12.830Z,8.17
2018-11-29T00:58:40.729Z,7.97
2018-11-29T01:01:08.626Z,7.27
2018-11-29T01:03:36.508Z,9.57
2018-11-29T01:06:04.690Z,9.03
2018-11-29T01:08:32.593Z,8.77
2018-11-29T01:11:00.478Z,8.23
2018-11-29T01:13:28.361Z,10.93
2018-11-29T01:15:56.257Z,8.27
2018-11-29T01:18:24.141Z,9.60
2018-11-29T01:20:52.046Z,10.30
2018-11-29T01:23:19.921Z,8.57
2018-11-29T01:25:47.802Z,8.70
2018-11-29T01:28:15.702Z,9.67
2018-11-29T01:30:43.606Z,8.07
2018-11-29T01:33:11.584Z,10.03
2018-11-29T01:35:39.489Z,9.80
2018-11-29T01:38:07.381Z,9.00
2018-11-29T01:40:35.262Z,9.27
2018-11-29T01:43:03.149Z,10.77
2018-11-29T01:45:31.033Z,10.07
2018-11-29T01:47:58.934Z,10.00
2018-11-29T01:50:26.825Z,9.90
2018-11-29T01:52:54.729Z,10.77
2018-11-29T01:55:22.613Z,10.53
2018-11-29T01:57:50.518Z,11.37
2018-11-29T02:00:18.604Z,11.50
2018-11-29T02:02:47.777Z,12.97
2018-11-29T02:05:15.658Z,10.73
2018-11-29T02:07:43.533Z,12.27
2018-11-29T02:10:17.909Z,12.50
2018-11-29T02:12:45.826Z,13.83
2018-11-29T02:15:13.713Z,11.93
2018-11-29T02:17:41.617Z,13.23
2018-11-29T02:20:13.890Z,12.67
2018-11-29T02:22:41.777Z,11.97
2018-11-29T02:25:09.686Z,13.10
2018-11-29T02:27:37.564Z,11.33
2018-11-29T02:30:08.944Z,12.90
2018-11-29T02:32:37.174Z,12.03
2018-11-29T02:35:05.583Z,11.87
2018-11-29T02:37:33.475Z,12.97
2018-11-29T02:40:01.395Z,11.87
2018-11-29T02:42:29.269Z,13.13
2018-11-29T02:44:57.201Z,12.77
2018-11-29T02:47:25.111Z,13.50
2018-11-29T02:49:52.998Z,14.20
2018-11-29T02:52:20.910Z,13.53
2018-11-29T02:54:48.818Z,11.63
2018-11-29T02:57:16.703Z,14.27
2018-11-29T02:59:44.609Z,14.50
2018-11-29T03:02:12.521Z,13.13
2018-11-29T03:04:40.414Z,13.20
2018-11-29T03:07:08.321Z,12.33
2018-11-29T03:09:36.213Z,13.63
2018-11-29T03:12:04.400Z,13.13
2018-11-29T03:14:32.294Z,10.87
2018-11-29T03:17:00.187Z,12.53
2018-11-29T03:19:28.090Z,14.47
2018-11-29T03:21:55.998Z,12.13
2018-11-29T03:24:23.897Z,11.60
2018-11-29T03:26:51.791Z,12.27
2018-11-29T03:29:19.686Z,13.43
2018-11-29T03:31:47.592Z,13.57
2018-11-29T03:34:15.536Z,11.80
2018-11-29T03:36:43.425Z,13.20
2018-11-29T03:39:11.322Z,13.07
2018-11-29T03:41:39.207Z,13.10
2018-11-29T03:44:07.109Z,14.83
2018-11-29T03:46:35.076Z,13.27
2018-11-29T03:49:02.961Z,13.33
2018-11-29T03:51:30.873Z,13.10
2018-11-29T03:53:58.757Z,14.10
2018-11-29T03:56:26.672Z,13.57
2018-11-29T03:58:54.565Z,12.97
2018-11-29T04:01:22.445Z,14.67
2018-11-29T04:03:50.354Z,14.57
2018-11-29T04:06:18.265Z,15.07
2018-11-29T04:08:46.150Z,15.80
2018-11-29T04:11:14.079Z,18.77
2018-11-29T04:13:41.964Z,15.37
2018-11-29T04:16:09.882Z,15.23
2018-11-29T04:18:37.789Z,13.77
2018-11-29T04:21:05.693Z,13.37
2018-11-29T04:23:33.603Z,14.27
2018-11-29T04:26:01.502Z,17.37
2018-11-29T04:28:29.434Z,16.87
2018-11-29T04:30:57.365Z,17.50
2018-11-29T04:33:25.274Z,13.93
2018-11-29T04:35:53.183Z,18.80
2018-11-29T04:38:21.085Z,16.50
2018-11-29T04:40:48.993Z,17.87
2018-11-29T04:43:16.901Z,15.53
2018-11-29T04:45:56.289Z,15.20
2018-11-29T04:48:24.206Z,15.77
2018-11-29T04:50:52.100Z,19.37
2018-11-29T04:53:20.022Z,15.83
2018-11-29T04:55:47.925Z,17.20
2018-11-29T04:58:15.821Z,18.17
2018-11-29T05:00:43.730Z,16.80
2018-11-29T05:03:11.631Z,15.30
2018-11-29T05:05:39.546Z,16.13
2018-11-29T05:08:07.438Z,17.03
2018-11-29T05:10:35.375Z,16.47
2018-11-29T05:13:03.261Z,15.00
2018-11-29T05:15:31.164Z,15.83
2018-11-29T05:17:59.058Z,15.47
2018-11-29T05:20:26.963Z,19.47
2018-11-29T05:22:54.870Z,17.57
2018-11-29T05:25:22.807Z,17.57
2018-11-29T05:27:50.886Z,20.07
2018-11-29T05:30:18.798Z,16.00
2018-11-29T05:32:46.697Z,19.90
2018-11-29T05:35:14.594Z,16.10
2018-11-29T05:37:42.625Z,16.10
2018-11-29T05:40:11.786Z,17.50
2018-11-29T05:42:39.726Z,17.53
2018-11-29T05:45:08.752Z,13.77
2018-11-29T05:47:36.658Z,14.27
2018-11-29T05:50:06.429Z,15.20
2018-11-29T05:52:34.359Z,15.10
2018-11-29T05:55:02.249Z,18.33
2018-11-29T05:57:30.169Z,17.17
2018-11-29T05:59:58.068Z,15.60
2018-11-29T06:02:25.982Z,13.87
2018-11-29T06:04:53.886Z,14.40
2018-11-29T06:07:21.817Z,13.47
2018-11-29T06:09:49.721Z,15.37
2018-11-29T06:12:17.641Z,14.63
2018-11-29T06:14:45.553Z,14.50
2018-11-29T06:17:13.447Z,17.30
2018-11-29T06:19:41.362Z,15.97
2018-11-29T06:22:09.265Z,12.90
2018-11-29T06:24:37.185Z,14.40
2018-11-29T06:27:05.085Z,13.20
2018-11-29T06:29:32.986Z,14.83
2018-11-29T06:32:00.913Z,12.80
2018-11-29T06:34:28.834Z,15.10
2018-11-29T06:36:56.765Z,14.57
2018-11-29T06:39:24.666Z,13.30
2018-11-29T06:41:52.566Z,14.10
2018-11-29T06:44:20.489Z,14.37
2018-11-29T06:46:48.401Z,13.13
2018-11-29T06:49:16.315Z,13.50
2018-11-29T06:51:44.226Z,16.30
2018-11-29T06:54:12.198Z,14.30
2018-11-29T06:56:40.098Z,14.17
2018-11-29T06:59:08.018Z,15.47
2018-11-29T07:01:36.015Z,14.00
2018-11-29T07:04:03.942Z,14.83
2018-11-29T07:06:31.861Z,13.83
2018-11-29T07:08:59.766Z,15.63
2018-11-29T07:11:27.694Z,15.27
2018-11-29T07:13:55.597Z,17.63
2018-11-29T07:16:23.498Z,16.50
2018-11-29T07:18:51.415Z,19.13
2018-11-29T07:21:30.701Z,17.27
2018-11-29T07:23:58.625Z,16.23
2018-11-29T07:26:26.577Z,17.37
2018-11-29T07:28:54.467Z,20.13
2018-11-29T07:31:22.398Z,17.73
2018-11-29T07:33:50.286Z,19.33
2018-11-29T07:36:18.190Z,19.57
2018-11-29T07:38:46.102Z,20.97
2018-11-29T07:41:14.004Z,19.70
2018-11-29T07:43:41.933Z,19.87
2018-11-29T07:46:09.827Z,20.50
2018-11-29T07:48:37.749Z,18.00
2018-11-29T07:51:05.810Z,18.43
2018-11-29T07:53:34.105Z,18.03
2018-11-29T07:56:02.006Z,19.37
2018-11-29T07:58:29.904Z,18.17
2018-11-29T08:00:57.827Z,19.00
2018-11-29T08:03:25.749Z,17.20
2018-11-29T08:05:53.649Z,17.40
2018-11-29T08:08:21.590Z,19.97
2018-11-29T08:10:49.490Z,18.20
2018-11-29T08:13:17.378Z,17.47
2018-11-29T08:15:45.293Z,21.63
2018-11-29T08:18:13.195Z,18.77
2018-11-29T08:20:41.148Z,18.87
2018-11-29T08:23:09.049Z,18.50
2018-11-29T08:25:36.971Z,17.47
2018-11-29T08:28:04.998Z,18.93
2018-11-29T08:30:32.910Z,17.53
2018-11-29T08:33:00.829Z,17.47
2018-11-29T08:35:28.763Z,16.93
2018-11-29T08:37:56.725Z,16.60
2018-11-29T08:40:24.641Z,19.67
2018-11-29T08:42:52.582Z,16.93
2018-11-29T08:45:20.485Z,17.47
2018-11-29T08:47:48.381Z,16.73
2018-11-29T08:50:16.289Z,17.27
2018-11-29T08:52:45.132Z,20.67
2018-11-29T08:55:17.122Z,17.90
2018-11-29T08:57:45.411Z,18.93
2018-11-29T09:00:15.202Z,15.07
2018-11-29T09:02:43.113Z,17.60
2018-11-29T09:05:11.884Z,17.17
2018-11-29T09:07:39.849Z,18.10
2018-11-29T09:10:09.325Z,17.43
2018-11-29T09:12:37.241Z,18.10
2018-11-29T09:15:06.681Z,17.50
2018-11-29T09:17:34.597Z,17.23
2018-11-29T09:20:02.490Z,16.83
2018-11-29T09:22:30.409Z,18.80
2018-11-29T09:24:58.318Z,17.50
2018-11-29T09:27:26.205Z,17.23
2018-11-29T09:29:54.113Z,17.67
2018-11-29T09:32:22.028Z,17.33
2018-11-29T09:34:49.939Z,18.40
2018-11-29T09:37:17.825Z,16.07
2018-11-29T09:39:45.734Z,16.33
2018-11-29T09:42:13.639Z,18.13
2018-11-29T09:44:41.569Z,18.50
2018-11-29T09:47:09.483Z,18.10
2018-11-29T09:49:37.389Z,18.30
2018-11-29T09:52:05.386Z,20.37
2018-11-29T09:54:33.273Z,21.57
2018-11-29T09:57:01.222Z,19.77
2018-11-29T09:59:29.110Z,17.97
2018-11-29T10:01:57.006Z,18.37
2018-11-29T10:04:24.929Z,21.47
2018-11-29T10:06:52.846Z,18.20
2018-11-29T10:09:20.753Z,21.07
2018-11-29T10:11:48.656Z,18.80
2018-11-29T10:14:16.563Z,21.13
2018-11-29T10:16:44.481Z,17.47
2018-11-29T10:19:12.388Z,17.17
2018-11-29T10:21:40.311Z,21.17
2018-11-29T10:24:08.221Z,20.57
2018-11-29T10:26:36.147Z,19.53
2018-11-29T10:29:04.078Z,19.00
2018-11-29T10:31:32.046Z,17.23
2018-11-29T10:33:59.955Z,22.10
2018-11-29T10:36:27.879Z,24.47
2018-11-29T10:38:55.781Z,19.90
2018-11-29T10:41:23.670Z,22.13
2018-11-29T10:43:51.582Z,24.90
2018-11-29T10:46:19.602Z,25.27
2018-11-29T10:48:47.545Z,22.73
2018-11-29T10:51:15.462Z,24.23
2018-11-29T10:53:43.353Z,24.97
2018-11-29T10:56:11.323Z,24.83
2018-11-29T10:58:39.237Z,22.50
2018-11-29T11:01:12.414Z,21.10
2018-11-29T11:03:40.310Z,26.53
2018-11-29T11:06:08.217Z,26.77
2018-11-29T11:08:36.114Z,25.13
2018-11-29T11:11:08.007Z,32.30
2018-11-29T11:13:37.259Z,32.57
2018-11-29T11:16:05.721Z,31.67
2018-11-29T11:18:33.655Z,33.47
2018-11-29T11:21:01.589Z,31.37
2018-11-29T11:23:29.525Z,30.60
2018-11-29T11:25:57.433Z,27.23
2018-11-29T11:28:25.342Z,24.53
2018-11-29T11:30:53.242Z,25.27
2018-11-29T11:33:21.172Z,26.90
2018-11-29T11:35:49.071Z,25.50
2018-11-29T11:38:16.961Z,20.73
2018-11-29T11:40:44.882Z,19.33
2018-11-29T11:43:12.801Z,19.03
2018-11-29T11:45:40.682Z,17.37
2018-11-29T11:48:08.589Z,22.17
2018-11-29T11:50:36.990Z,19.10
2018-11-29T11:53:05.654Z,20.00
2018-11-29T11:55:33.566Z,17.60
2018-11-29T11:58:01.477Z,18.40
2018-11-29T12:00:30.207Z,22.73
2018-11-29T12:03:01.418Z,19.77
2018-11-29T12:05:29.344Z,19.33
2018-11-29T12:07:57.262Z,22.00
2018-11-29T12:10:25.266Z,17.43
2018-11-29T12:12:53.166Z,19.87
2018-11-29T12:15:21.066Z,18.47
2018-11-29T12:17:48.961Z,15.77
2018-11-29T12:20:20.962Z,20.10
2018-11-29T12:22:48.866Z,17.33
2018-11-29T12:25:17.863Z,21.30
2018-11-29T12:27:45.809Z,24.97
2018-11-29T12:30:18.910Z,24.97
2018-11-29T12:32:46.875Z,22.67
2018-11-29T12:35:15.189Z,30.40
2018-11-29T12:37:43.131Z,26.97
2018-11-29T12:40:13.458Z,21.67
2018-11-29T12:42:41.392Z,32.47
2018-11-29T12:45:12.048Z,26.33
2018-11-29T12:47:40.015Z,24.93
2018-11-29T12:50:40.947Z,21.80
2018-11-29T12:53:08.854Z,23.00
2018-11-29T12:55:40.363Z,24.40
2018-11-29T12:58:08.301Z,24.27
2018-11-29T13:00:36.501Z,20.90
2018-11-29T13:05:35.734Z,18.30
2018-11-29T13:08:03.705Z,19.33
2018-11-29T13:10:31.758Z,18.10
2018-11-29T13:12:59.682Z,16.00
2018-11-29T13:15:28.959Z,18.40
2018-11-29T13:17:57.823Z,19.47
2018-11-29T13:20:25.745Z,19.23
2018-11-29T13:22:53.650Z,17.33
2018-11-29T13:25:22.651Z,17.97
2018-11-29T13:27:50.615Z,15.97
2018-11-29T13:30:19.658Z,18.13
2018-11-29T13:32:48.277Z,16.43
2018-11-29T13:35:18.942Z,15.03
2018-11-29T13:37:51.282Z,14.73
2018-11-29T13:40:19.218Z,17.40
2018-11-29T13:42:47.130Z,15.67
2018-11-29T13:45:15.034Z,17.17
2018-11-29T13:47:42.934Z,16.63
2018-11-29T13:50:12.977Z,15.33
2018-11-29T13:52:40.872Z,16.53
2018-11-29T13:55:09.838Z,14.83
2018-11-29T13:57:37.773Z,15.97
2018-11-29T14:00:10.374Z,15.80
2018-11-29T14:02:38.286Z,15.57
2018-11-29T14:05:06.508Z,16.30
2018-11-29T14:07:34.446Z,15.00
2018-11-29T14:10:02.350Z,14.57
2018-11-29T14:12:30.277Z,16.87
2018-11-29T14:14:58.386Z,15.57
2018-11-29T14:17:26.393Z,17.50
2018-11-29T14:19:54.293Z,15.97
2018-11-29T14:22:22.210Z,17.30
2018-11-29T14:24:50.137Z,16.00
2018-11-29T14:27:18.034Z,16.87
2018-11-29T14:29:45.954Z,14.57
2018-11-29T14:32:13.909Z,12.87
2018-11-29T14:34:41.783Z,11.67
2018-11-29T14:37:09.692Z,11.73
2018-11-29T14:39:37.649Z,15.17
2018-11-29T14:42:05.959Z,10.57
2018-11-29T14:44:33.884Z,12.30
2018-11-29T14:47:01.777Z,11.80
2018-11-29T14:49:29.706Z,17.80
2018-11-29T14:51:57.602Z,12.23
2018-11-29T14:54:25.517Z,13.27
2018-11-29T14:56:53.429Z,14.67
2018-11-29T14:59:21.341Z,12.70
2018-11-29T15:01:49.226Z,11.47
2018-11-29T15:04:17.135Z,11.70
2018-11-29T15:06:45.041Z,12.80
2018-11-29T15:09:12.976Z,13.07
2018-11-29T15:11:40.873Z,12.50
2018-11-29T15:14:08.769Z,13.27
2018-11-29T15:16:36.705Z,12.93
2018-11-29T15:19:04.613Z,14.20
2018-11-29T15:21:32.557Z,12.70
2018-11-29T15:24:00.457Z,11.80
2018-11-29T15:26:28.412Z,11.83
2018-11-29T15:28:56.314Z,12.83
2018-11-29T15:31:24.238Z,13.30
2018-11-29T15:33:52.181Z,12.83
2018-11-29T15:36:20.104Z,12.23
2018-11-29T15:38:48.070Z,13.57
2018-11-29T15:41:18.132Z,11.70
2018-11-29T15:43:43.925Z,12.83
2018-11-29T15:46:11.841Z,11.90
2018-11-29T15:48:39.807Z,10.40
2018-11-29T15:51:07.693Z,10.70
2018-11-29T15:53:35.578Z,10.53
2018-11-29T15:56:03.509Z,10.93
2018-11-29T15:58:31.447Z,10.07
2018-11-29T16:00:59.381Z,11.30
2018-11-29T16:03:27.306Z,10.63
2018-11-29T16:05:55.207Z,11.50
2018-11-29T16:08:23.142Z,10.17
2018-11-29T16:10:51.650Z,9.23
2018-11-29T16:13:19.725Z,9.40
2018-11-29T16:15:47.638Z,9.93
2018-11-29T16:18:15.538Z,9.87
2018-11-29T16:20:43.459Z,8.53
2018-11-29T16:23:11.349Z,12.00
2018-11-29T16:25:39.282Z,10.47
2018-11-29T16:28:08.270Z,10.00
2018-11-29T16:30:45.875Z,9.90
2018-11-29T16:33:32.194Z,10.30
2018-11-29T16:36:00.180Z,11.00
2018-11-29T16:38:28.141Z,12.10
2018-11-29T16:40:56.085Z,9.57
2018-11-29T16:43:24.073Z,11.77
2018-11-29T16:45:51.989Z,11.53
2018-11-29T16:48:19.903Z,12.50
2018-11-29T16:50:47.817Z,10.97
2018-11-29T16:53:15.725Z,10.97
2018-11-29T16:55:43.652Z,13.23
2018-11-29T16:58:13.281Z,16.37
2018-11-29T17:00:41.209Z,10.83
2018-11-29T17:03:09.137Z,10.83
2018-11-29T17:05:37.111Z,10.80
2018-11-29T17:08:05.267Z,12.00
2018-11-29T17:10:33.198Z,11.43
2018-11-29T17:13:03.942Z,10.77
2018-11-29T17:15:31.899Z,15.83
2018-11-29T17:17:59.833Z,14.33
2018-11-29T17:20:27.745Z,14.40
2018-11-29T17:22:55.677Z,12.63
2018-11-29T17:25:23.579Z,12.23
2018-11-29T17:27:51.700Z,15.40
2018-11-29T17:30:22.469Z,12.57
2018-11-29T17:32:51.585Z,12.83
2018-11-29T17:35:19.492Z,16.27
2018-11-29T17:37:47.385Z,13.60
2018-11-29T17:40:16.617Z,14.70
2018-11-29T17:42:44.529Z,15.20
2018-11-29T17:45:15.674Z,13.53
2018-11-29T17:47:44.413Z,14.93
2018-11-29T17:50:15.846Z,13.93
2018-11-29T17:52:43.762Z,15.60
2018-11-29T17:55:11.950Z,12.73
2018-11-29T17:57:39.889Z,15.00
2018-11-29T18:00:18.670Z,15.10
2018-11-29T18:02:46.576Z,14.03
2018-11-29T18:05:14.489Z,17.67
2018-11-29T18:07:42.405Z,13.23
2018-11-29T18:10:13.510Z,14.93
2018-11-29T18:12:41.458Z,15.60
2018-11-29T18:15:12.925Z,13.97
2018-11-29T18:17:41.330Z,14.83
2018-11-29T18:20:10.603Z,15.87
2018-11-29T18:22:39.217Z,16.53
2018-11-29T18:25:09.473Z,13.10
2018-11-29T18:27:37.430Z,16.43
2018-11-29T18:30:09.669Z,12.67
2018-11-29T18:32:39.967Z,16.00
2018-11-29T18:35:07.955Z,17.23
2018-11-29T18:37:35.889Z,16.00
2018-11-29T18:40:04.117Z,17.00
2018-11-29T18:42:32.054Z,15.03
2018-11-29T18:45:00.014Z,14.70
2018-11-29T18:47:27.942Z,15.90
2018-11-29T18:49:55.869Z,15.37
2018-11-29T18:52:23.781Z,15.70
2018-11-29T18:54:51.729Z,14.60
2018-11-29T18:57:19.622Z,13.77
2018-11-29T18:59:47.513Z,15.33
2018-11-29T19:02:15.470Z,14.70
2018-11-29T19:04:43.366Z,14.17
2018-11-29T19:07:11.269Z,14.00
2018-11-29T19:09:39.177Z,13.63
2018-11-29T19:12:07.087Z,13.83
2018-11-29T19:14:34.995Z,15.93
2018-11-29T19:17:02.940Z,17.13
2018-11-29T19:19:30.851Z,14.67
2018-11-29T19:21:59.045Z,14.43
2018-11-29T19:24:26.963Z,14.33
2018-11-29T19:26:54.944Z,13.20
2018-11-29T19:29:22.877Z,12.70
2018-11-29T19:31:50.836Z,13.33
2018-11-29T19:34:18.737Z,13.43
2018-11-29T19:36:46.650Z,13.53
2018-11-29T19:39:14.557Z,12.63
2018-11-29T19:41:42.505Z,13.47
2018-11-29T19:44:10.402Z,13.23
2018-11-29T19:46:38.459Z,13.77
2018-11-29T19:49:06.311Z,13.23
2018-11-29T19:51:34.274Z,14.33
2018-11-29T19:54:02.190Z,12.00
2018-11-29T19:56:30.105Z,16.07
2018-11-29T19:58:58.050Z,12.80
2018-11-29T20:01:25.946Z,12.47
2018-11-29T20:03:53.853Z,14.17
2018-11-29T20:06:21.787Z,12.97
2018-11-29T20:08:49.686Z,10.73
2018-11-29T20:11:17.601Z,10.57
2018-11-29T20:13:45.521Z,11.57
2018-11-29T20:16:13.429Z,11.43
2018-11-29T20:18:41.321Z,11.27
2018-11-29T20:21:09.241Z,14.13
2018-11-29T20:23:37.183Z,12.07
2018-11-29T20:26:05.126Z,11.47
2018-11-29T20:28:33.986Z,12.53
2018-11-29T20:31:01.901Z,12.07
2018-11-29T20:33:29.829Z,10.13
2018-11-29T20:35:57.788Z,12.67
2018-11-29T20:38:25.677Z,9.83
2018-11-29T20:40:53.589Z,11.50
2018-11-29T20:43:21.595Z,9.83
2018-11-29T20:45:51.491Z,10.53
2018-11-29T20:48:20.902Z,11.40
2018-11-29T20:50:49.271Z,10.63
2018-11-29T20:53:21.034Z,10.43
2018-11-29T20:55:48.927Z,13.53
2018-11-29T20:58:16.841Z,12.33
2018-11-29T21:00:44.751Z,13.53
2018-11-29T21:03:12.666Z,10.03
2018-11-29T21:05:41.906Z,10.33
2018-11-29T21:08:10.693Z,13.70
2018-11-29T21:10:38.597Z,10.90
2018-11-29T21:13:07.062Z,10.87
2018-11-29T21:15:36.472Z,13.83
2018-11-29T21:18:04.482Z,12.17
2018-11-29T21:20:32.406Z,10.17
2018-11-29T21:23:00.730Z,10.43
2018-11-29T21:25:28.678Z,9.87
2018-11-29T21:27:56.605Z,10.80
2018-11-29T21:30:24.534Z,9.40
2018-11-29T21:32:52.429Z,10.53
2018-11-29T21:35:21.632Z,9.83
2018-11-29T21:37:50.429Z,10.80
2018-11-29T21:40:23.894Z,12.10
2018-11-29T21:42:51.792Z,11.27
2018-11-29T21:45:19.681Z,11.20
2018-11-29T21:47:47.597Z,11.50
2018-11-29T21:50:15.480Z,9.73
2018-11-29T21:52:43.389Z,11.20
2018-11-29T21:55:11.286Z,10.53
2018-11-29T21:57:39.206Z,9.57
2018-11-29T22:00:12.385Z,11.40
2018-11-29T22:02:41.859Z,11.90
2018-11-29T22:05:09.669Z,12.60
2018-11-29T22:07:37.590Z,10.83
2018-11-29T22:10:05.551Z,10.60
2018-11-29T22:12:33.500Z,9.80
2018-11-29T22:15:01.378Z,8.37
2018-11-29T22:17:29.301Z,10.67
2018-11-29T22:19:58.403Z,9.10
2018-11-29T22:22:32.199Z,9.87
2018-11-29T22:25:00.255Z,11.87
2018-11-29T22:27:28.153Z,10.53
2018-11-29T22:29:56.062Z,8.93
2018-11-29T22:32:24.069Z,12.47
2018-11-29T22:34:51.981Z,10.93
2018-11-29T22:37:19.886Z,9.63
2018-11-29T22:39:47.841Z,10.17
2018-11-29T22:42:15.788Z,8.73
2018-11-29T22:44:43.689Z,10.33
2018-11-29T22:47:11.602Z,8.60
2018-11-29T22:49:39.545Z,10.03
2018-11-29T22:52:07.429Z,10.47
2018-11-29T22:54:35.342Z,8.67
2018-11-29T22:57:03.267Z,9.20
2018-11-29T22:59:31.158Z,9.17
2018-11-29T23:01:59.083Z,7.37
2018-11-29T23:04:27.047Z,8.47
2018-11-29T23:06:54.968Z,8.77
2018-11-29T23:09:22.915Z,10.70
2018-11-29T23:11:50.842Z,7.70
2018-11-29T23:14:18.753Z,9.53
2018-11-29T23:16:46.735Z,8.53
2018-11-29T23:19:14.637Z,7.13
2018-11-29T23:21:42.533Z,7.60
2018-11-29T23:24:10.457Z,8.40
2018-11-29T23:26:38.349Z,8.60
2018-11-29T23:29:06.445Z,7.83
2018-11-29T23:31:34.345Z,9.73
2018-11-29T23:34:02.291Z,9.33
2018-11-29T23:36:30.197Z,8.00
2018-11-29T23:38:58.102Z,8.20
2018-11-29T23:41:26.102Z,8.13
2018-11-29T23:43:54.070Z,8.33
2018-11-29T23:46:22.042Z,8.70
2018-11-29T23:48:49.969Z,10.60
2018-11-29T23:51:17.911Z,9.00
2018-11-29T23:53:45.872Z,10.30
2018-11-29T23:56:13.765Z,7.37
2018-11-29T23:58:41.689Z,8.60
